Terminal Aerodrome Forecast
Issued by NWS

Home | Current Version | Previous Version | Text Only | Print | Product List | Glossary On
Versions: 1 2 3 4 5 6 7 8 9 10 11 12 13 14 15 16 17 18 19 20 21 22 23 24 25
000
FTUS43 KPAH 211500 AAA
TAFCGI
TAF AMD
KCGI 211517Z 2115/2212 09004KT P6SM BKN027
      TEMPO 2115/2116 6SM BR SKC
     FM211900 14006KT P6SM BKN035
     FM220100 14006KT P6SM SCT080 BKN150
     FM221100 15008KT P6SM BKN015=

USA.gov is the U.S. government's official web portal to all federal, state and local government web resources and services.